| time (UTC) | temp F | wind direction | speed MPH | gust MPH | rain 1hr in | rain 24hr in | rain mn in | humidity % | barometer mb |
| 20260903222316 | 77 | 0.0 | 0.0 | 0.00 | 0.66 | 0.11 | 87 | 1013.3 | |
| 20260903221316 | 78 | 0.0 | 0.0 | 0.00 | 0.66 | 0.11 | 86 | 1013.2 | |
| 20260903220336 | 78 | 0.0 | 0.0 | 0.00 | 0.66 | 0.11 | 84 | 1013.0 | |
| 20260903215337 | 79 | 0.0 | 0.0 | 0.00 | 0.66 | 0.11 | 82 | 1013.0 | |
| 20260903214336 | 79 | 0.0 | 0.0 | 0.00 | 0.66 | 0.11 | 85 | 1013.0 | |
| 20260903213337 | 79 | 0.0 | 0.0 | 0.00 | 0.66 | 0.11 | 83 | 1013.1 | |
| 20260903212336 | 81 | 0.0 | 0.0 | 0.00 | 0.66 | 0.11 | 76 | 1013.3 | |
| 20260903211317 | 81 | 292 | 1.0 | 2.0 | 0.00 | 0.66 | 0.11 | 75 | 1013.3 |
| 20260903210316 | 83 | 292 | 3.0 | 4.0 | 0.00 | 0.66 | 0.11 | 74 | 1013.5 |
| 20260903205316 | 82 | 270 | 2.0 | 4.0 | 0.00 | 0.66 | 0.11 | 74 | 1013.5 |
| 20260903204316 | 83 | 315 | 3.0 | 4.0 | 0.00 | 0.66 | 0.11 | 74 | 1013.6 |
| 20260903203416 | 83 | 337 | 2.0 | 4.0 | 0.00 | 0.66 | 0.11 | 73 | 1013.6 |
| 20260903202357 | 82 | 247 | 6.0 | 7.0 | 0.00 | 0.66 | 0.11 | 72 | 1013.8 |
| 20260903201316 | 83 | 247 | 2.0 | 4.0 | 0.00 | 0.66 | 0.11 | 73 | 1013.9 |
| 20260903200316 | 82 | 270 | 2.0 | 4.0 | 0.00 | 0.66 | 0.11 | 75 | 1014.1 |
| 20260903195316 | 82 | 247 | 4.0 | 7.0 | 0.00 | 0.66 | 0.11 | 74 | 1014.0 |
| 20260903194336 | 82 | 270 | 3.0 | 5.0 | 0.00 | 0.66 | 0.11 | 73 | 1014.0 |
| 20260903193316 | 81 | 292 | 1.0 | 3.0 | 0.00 | 0.66 | 0.11 | 75 | 1013.9 |
| 20260903192436 | 82 | 0.0 | 1.0 | 0.00 | 0.66 | 0.11 | 76 | 1014.1 | |
| 20260903191316 | 82 | 247 | 2.0 | 3.0 | 0.00 | 0.66 | 0.11 | 74 | 1014.2 |
| 20260903190356 | 82 | 292 | 2.0 | 5.0 | 0.00 | 0.66 | 0.11 | 76 | 1014.2 |
| 20260903185336 | 80 | 0.0 | 0.0 | 0.00 | 0.66 | 0.11 | 76 | 1014.5 | |
| 20260903184316 | 81 | 337 | 1.0 | 2.0 | 0.00 | 0.66 | 0.11 | 74 | 1014.7 |
| 20260903183417 | 81 | 247 | 3.0 | 5.0 | 0.00 | 0.66 | 0.11 | 74 | 1014.6 |
| 20260903182356 | 82 | 247 | 6.0 | 8.0 | 0.00 | 0.66 | 0.11 | 75 | 1014.6 |
| 20260903181357 | 82 | 247 | 4.0 | 5.0 | 0.00 | 0.66 | 0.11 | 75 | 1014.8 |
| 20260903180356 | 82 | 292 | 2.0 | 4.0 | 0.00 | 0.66 | 0.11 | 74 | 1014.8 |
| 20260903175316 | 81 | 247 | 3.0 | 5.0 | 0.00 | 0.66 | 0.11 | 75 | 1014.8 |
| 20260903174315 | 81 | 247 | 3.0 | 4.0 | 0.00 | 0.66 | 0.11 | 75 | 1014.9 |
| 20260903173315 | 79 | 202 | 1.0 | 4.0 | 0.00 | 0.66 | 0.11 | 77 | 1014.8 |
| 20260903172315 | 79 | 247 | 1.0 | 2.0 | 0.00 | 0.66 | 0.11 | 76 | 1014.9 |
| 20260903171315 | 80 | 202 | 3.0 | 4.0 | 0.00 | 0.66 | 0.11 | 75 | 1015.1 |
| 20260903170355 | 81 | 315 | 3.0 | 8.0 | 0.00 | 0.66 | 0.11 | 76 | 1015.0 |
| 20260903165356 | 80 | 247 | 5.0 | 7.0 | 0.00 | 0.66 | 0.11 | 75 | 1015.0 |
| 20260903164315 | 80 | 292 | 3.0 | 5.0 | 0.00 | 0.66 | 0.11 | 77 | 1015.2 |
| 20260903163315 | 79 | 270 | 1.0 | 4.0 | 0.00 | 0.66 | 0.11 | 77 | 1015.3 |
| 20260903162336 | 79 | 247 | 5.0 | 10.0 | 0.00 | 0.66 | 0.11 | 79 | 1015.4 |
| 20260903161316 | 78 | 247 | 3.0 | 5.0 | 0.00 | 0.66 | 0.11 | 78 | 1015.4 |
| 20260903160315 | 77 | 247 | 2.0 | 3.0 | 0.00 | 0.66 | 0.11 | 80 | 1015.5 |
| 20260903155315 | 77 | 247 | 3.0 | 4.0 | 0.00 | 0.66 | 0.11 | 80 | 1015.6 |
| 20260903154315 | 76 | 247 | 2.0 | 8.0 | 0.00 | 0.66 | 0.11 | 82 | 1015.7 |
| 20260903153315 | 76 | 0.0 | 2.0 | 0.00 | 0.66 | 0.11 | 83 | 1015.9 | |
| 20260903152315 | 75 | 0.0 | 0.0 | 0.00 | 0.67 | 0.11 | 84 | 1016.0 | |
| 20260903151336 | 75 | 0.0 | 1.0 | 0.00 | 0.67 | 0.11 | 84 | 1016.0 | |
| 20260903150315 | 74 | 0.0 | 1.0 | 0.00 | 0.68 | 0.11 | 84 | 1016.0 | |
| 20260903145335 | 74 | 225 | 1.0 | 2.0 | 0.00 | 0.70 | 0.11 | 84 | 1015.9 |
| 20260903144315 | 74 | 225 | 1.0 | 4.0 | 0.00 | 0.70 | 0.11 | 85 | 1015.9 |
| 20260903143335 | 73 | 270 | 1.0 | 3.0 | 0.00 | 0.71 | 0.11 | 86 | 1015.8 |
| 20260903142335 | 73 | 0.0 | 1.0 | 0.00 | 0.71 | 0.11 | 87 | 1015.8 | |
| 20260903141315 | 72 | 0.0 | 1.0 | 0.00 | 0.78 | 0.11 | 89 | 1015.7 | |
| 20260903140356 | 72 | 247 | 1.0 | 3.0 | 0.00 | 0.84 | 0.11 | 91 | 1015.8 |
| 20260903135315 | 71 | 225 | 2.0 | 5.0 | 0.00 | 0.85 | 0.11 | 92 | 1015.6 |
| 20260903134415 | 71 | 270 | 1.0 | 2.0 | 0.00 | 0.85 | 0.11 | 92 | 1016.0 |
| 20260903133355 | 71 | 270 | 1.0 | 3.0 | 0.00 | 0.85 | 0.11 | 93 | 1015.8 |
| 20260903132335 | 71 | 247 | 2.0 | 3.0 | 0.00 | 0.85 | 0.11 | 93 | 1015.8 |
| 20260903131315 | 70 | 0.0 | 0.0 | 0.00 | 0.85 | 0.11 | 93 | 1015.8 | |
| 20260903130416 | 70 | 0.0 | 1.0 | 0.00 | 0.85 | 0.11 | 94 | 1015.9 | |
| 20260903125315 | 69 | 0.0 | 1.0 | 0.00 | 0.85 | 0.11 | 94 | 1016.0 | |
| 20260903124335 | 68 | 0.0 | 0.0 | 0.00 | 0.85 | 0.11 | 94 | 1016.0 | |
| 20260903123355 | 68 | 0.0 | 0.0 | 0.00 | 0.85 | 0.11 | 93 | 1016.1 | |
| 20260903122315 | 68 | 0.0 | 0.0 | 0.00 | 0.85 | 0.11 | 94 | 1015.9 | |
| 20260903121315 | 68 | 0.0 | 0.0 | 0.00 | 0.85 | 0.11 | 93 | 1015.8 | |
| 20260903120355 | 67 | 0.0 | 0.0 | 0.00 | 0.85 | 0.11 | 93 | 1015.5 | |
| 20260903115316 | 67 | 0.0 | 0.0 | 0.00 | 0.85 | 0.11 | 93 | 1015.5 | |
| 20260903114315 | 66 | 0.0 | 0.0 | 0.00 | 0.85 | 0.11 | 93 | 1015.4 | |
| 20260903113315 | 66 | 0.0 | 0.0 | 0.00 | 0.85 | 0.11 | 93 | 1015.5 | |
| 20260903112336 | 65 | 0.0 | 0.0 | 0.00 | 0.85 | 0.11 | 93 | 1015.3 | |
| 20260903111335 | 66 | 0.0 | 0.0 | 0.00 | 0.85 | 0.11 | 93 | 1015.1 | |
| 20260903110335 | 66 | 0.0 | 0.0 | 0.00 | 0.85 | 0.11 | 93 | 1015.0 | |
| 20260903105415 | 66 | 0.0 | 0.0 | 0.00 | 0.85 | 0.11 | 93 | 1015.0 | |
| 20260903104335 | 66 | 0.0 | 0.0 | 0.00 | 0.85 | 0.11 | 93 | 1015.0 | |
| 20260903103315 | 66 | 0.0 | 0.0 | 0.00 | 0.85 | 0.11 | 93 | 1015.0 | |
| 20260903102315 | 66 | 0.0 | 0.0 | 0.01 | 0.85 | 0.11 | 93 | 1015.1 | |
| 20260903101356 | 66 | 0.0 | 0.0 | 0.01 | 0.85 | 0.11 | 93 | 1015.0 | |
| 20260903100315 | 66 | 0.0 | 0.0 | 0.01 | 0.85 | 0.11 | 93 | 1015.2 | |
| 20260903095315 | 66 | 0.0 | 0.0 | 0.01 | 0.85 | 0.11 | 93 | 1015.3 | |
| 20260903094335 | 66 | 0.0 | 0.0 | 0.01 | 0.85 | 0.11 | 93 | 1015.3 | |
| 20260903093315 | 66 | 0.0 | 0.0 | 0.01 | 0.85 | 0.11 | 93 | 1015.3 | |
| 20260903092315 | 66 | 0.0 | 0.0 | 0.00 | 0.84 | 0.10 | 93 | 1015.4 | |
| 20260903091315 | 66 | 0.0 | 0.0 | 0.00 | 0.84 | 0.10 | 93 | 1015.5 | |
| 20260903090335 | 66 | 0.0 | 0.0 | 0.00 | 0.84 | 0.10 | 93 | 1015.5 | |
| 20260903085337 | 66 | 0.0 | 0.0 | 0.00 | 0.84 | 0.10 | 93 | 1015.5 | |
| 20260903084337 | 66 | 0.0 | 0.0 | 0.00 | 0.84 | 0.10 | 93 | 1015.3 | |
| 20260903083317 | 66 | 0.0 | 0.0 | 0.00 | 0.84 | 0.10 | 93 | 1015.1 | |
| 20260903082357 | 66 | 0.0 | 0.0 | 0.00 | 0.84 | 0.10 | 93 | 1015.1 | |
| 20260903081337 | 66 | 0.0 | 0.0 | 0.00 | 0.84 | 0.10 | 93 | 1015.5 | |
| 20260903080317 | 66 | 0.0 | 0.0 | 0.00 | 0.84 | 0.10 | 93 | 1015.3 | |
| 20260903075317 | 66 | 0.0 | 0.0 | 0.00 | 0.84 | 0.10 | 93 | 1015.4 | |
| 20260903074316 | 66 | 0.0 | 0.0 | 0.00 | 0.84 | 0.10 | 93 | 1015.6 | |
| 20260903073337 | 66 | 0.0 | 0.0 | 0.00 | 0.84 | 0.10 | 93 | 1015.5 | |
| 20260903072317 | 66 | 0.0 | 0.0 | 0.00 | 0.84 | 0.10 | 93 | 1015.7 | |
| 20260903071316 | 66 | 0.0 | 0.0 | 0.00 | 0.84 | 0.10 | 93 | 1015.6 | |
| 20260903070337 | 66 | 0.0 | 0.0 | 0.00 | 0.84 | 0.10 | 92 | 1015.4 | |
| 20260903065337 | 66 | 0.0 | 0.0 | 0.00 | 0.84 | 0.10 | 92 | 1015.2 | |
| 20260903064316 | 66 | 0.0 | 0.0 | 0.00 | 0.84 | 0.10 | 92 | 1015.7 | |
| 20260903063336 | 66 | 0.0 | 0.0 | 0.00 | 0.84 | 0.10 | 92 | 1015.7 | |
| 20260903062357 | 67 | 0.0 | 0.0 | 0.00 | 0.84 | 0.10 | 92 | 1016.0 | |
| 20260903061316 | 67 | 0.0 | 0.0 | 0.00 | 0.84 | 0.10 | 92 | 1015.8 | |
| 20260903060316 | 67 | 0.0 | 0.0 | 0.00 | 0.84 | 0.10 | 92 | 1015.9 | |
| 20260903055417 | 67 | 0.0 | 0.0 | 0.00 | 0.84 | 0.10 | 92 | 1016.2 | |
| 20260903054316 | 67 | 0.0 | 0.0 | 0.01 | 0.84 | 0.10 | 92 | 1015.8 | |
| 20260903053416 | 67 | 0.0 | 0.0 | 0.01 | 0.84 | 0.10 | 92 | 1015.6 | |
| 20260903052336 | 67 | 0.0 | 1.0 | 0.03 | 0.84 | 0.10 | 91 | 1016.1 | |
| 20260903051337 | 67 | 0.0 | 0.0 | 0.06 | 0.84 | 0.10 | 91 | 1016.0 | |
| 20260903050336 | 67 | 0.0 | 0.0 | 0.09 | 0.84 | 0.10 | 91 | 1016.0 | |
| 20260903045417 | 67 | 0.0 | 0.0 | 0.11 | 0.84 | 0.10 | 91 | 1016.2 | |
| 20260903044316 | 67 | 0.0 | 0.0 | 0.16 | 0.83 | 0.09 | 91 | 1016.2 | |
| 20260903043316 | 67 | 0.0 | 0.0 | 0.23 | 0.83 | 0.09 | 91 | 1015.9 | |
| 20260903042316 | 67 | 0.0 | 0.0 | 0.23 | 0.81 | 0.07 | 91 | 1016.7 | |
| 20260903041436 | 67 | 225 | 4.0 | 7.0 | 0.22 | 0.78 | 0.04 | 91 | 1017.3 |
| 20260903040356 | 68 | 0.0 | 1.0 | 0.20 | 0.75 | 0.01 | 91 | 1017.9 | |
| 20260903035322 | 68 | 0.0 | 0.0 | 0.19 | 0.72 | 0.72 | 91 | 1018.2 | |
| 20260903034317 | 68 | 292 | 2.0 | 3.0 | 0.17 | 0.67 | 0.67 | 91 | 1018.4 |
| 20260903033317 | 68 | 270 | 3.0 | 5.0 | 0.11 | 0.60 | 0.60 | 91 | 1017.1 |
| 20260903032356 | 68 | 225 | 3.0 | 4.0 | 0.10 | 0.58 | 0.57 | 91 | 1015.9 |
| 20260903031337 | 68 | 0.0 | 2.0 | 0.10 | 0.56 | 0.56 | 90 | 1016.2 | |
| 20260903030356 | 69 | 0.0 | 0.0 | 0.11 | 0.55 | 0.55 | 90 | 1016.4 | |
| 20260903025337 | 69 | 0.0 | 1.0 | 0.13 | 0.53 | 0.53 | 90 | 1016.7 | |
| 20260903024316 | 69 | 202 | 1.0 | 4.0 | 0.29 | 0.50 | 0.50 | 90 | 1017.4 |
| 20260903023316 | 69 | 202 | 2.0 | 4.0 | 0.27 | 0.48 | 0.48 | 90 | 1018.0 |
| 20260903021336 | 68 | 0.0 | 0.0 | 0.25 | 0.45 | 0.45 | 90 | 1017.4 | |
| 20260903020437 | 69 | 0.0 | 0.0 | 0.23 | 0.43 | 0.43 | 90 | 1017.2 | |
| 20260903015316 | 69 | 112 | 2.0 | 6.0 | 0.19 | 0.39 | 0.39 | 89 | 1018.2 |
| 20260903014456 | 71 | 0 | 1.0 | 5.0 | 0.02 | 0.21 | 0.21 | 90 | 1017.3 |
| 20260903013357 | 72 | 0.0 | 0.0 | 0.02 | 0.21 | 0.21 | 90 | 1017.2 | |
| 20260903012356 | 72 | 0.0 | 2.0 | 0.02 | 0.21 | 0.21 | 90 | 1016.9 | |
| 20260903010316 | 72 | 0.0 | 0.0 | 0.01 | 0.20 | 0.20 | 89 | 1017.0 | |
| 20260903005316 | 72 | 0.0 | 0.0 | 0.01 | 0.20 | 0.20 | 89 | 1016.5 | |
| 20260903004316 | 72 | 0.0 | 0.0 | 0.00 | 0.19 | 0.19 | 89 | 1016.4 | |
| 20260903003437 | 72 | 0.0 | 0.0 | 0.00 | 0.19 | 0.19 | 89 | 1015.9 | |
| 20260903002316 | 72 | 0.0 | 0.0 | 0.00 | 0.19 | 0.19 | 89 | 1015.8 | |
| 20260903001316 | 72 | 0.0 | 0.0 | 0.00 | 0.19 | 0.19 | 89 | 1016.1 | |
| 20260903000318 | 72 | 22 | 2.0 | 4.0 | 0.00 | 0.19 | 0.19 | 89 | 1016.3 |
| 20260902235317 | 72 | 0.0 | 1.0 | 0.00 | 0.19 | 0.19 | 89 | 1016.0 | |
| 20260902234316 | 72 | 0.0 | 0.0 | 0.00 | 0.19 | 0.19 | 89 | 1016.6 | |
| 20260902233316 | 72 | 0.0 | 0.0 | 0.00 | 0.19 | 0.19 | 89 | 1016.5 | |
| 20260902232357 | 72 | 0.0 | 0.0 | 0.00 | 0.19 | 0.19 | 88 | 1016.3 | |
| 20260902231316 | 73 | 0.0 | 2.0 | 0.00 | 0.19 | 0.19 | 88 | 1016.4 | |
| 20260902230316 | 73 | 0.0 | 0.0 | 0.00 | 0.19 | 0.19 | 87 | 1016.4 | |
| 20260902225357 | 73 | 0.0 | 1.0 | 0.00 | 0.19 | 0.19 | 87 | 1016.1 | |
| 20260902224316 | 74 | 0.0 | 1.0 | 0.00 | 0.19 | 0.19 | 86 | 1016.1 | |
| 20260902223316 | 74 | 202 | 2.0 | 7.0 | 0.00 | 0.19 | 0.19 | 86 | 1016.0 |